createdAt,value
2019-03-29T00:00:26.184Z,7.40
2019-03-29T00:02:55.570Z,7.40
2019-03-29T00:05:24.877Z,7.30
2019-03-29T00:07:54.312Z,7.30
2019-03-29T00:10:23.684Z,7.30
2019-03-29T00:12:53.966Z,7.40
2019-03-29T00:15:23.272Z,7.30
2019-03-29T00:17:52.568Z,7.30
2019-03-29T00:20:21.905Z,7.30
2019-03-29T00:22:51.218Z,7.30
2019-03-29T00:25:21.612Z,7.40
2019-03-29T00:27:50.929Z,7.30
2019-03-29T00:30:20.234Z,7.20
2019-03-29T00:32:49.532Z,7.20
2019-03-29T00:35:18.930Z,7.20
2019-03-29T00:37:53.656Z,7.20
2019-03-29T00:40:19.264Z,7.20
2019-03-29T00:42:48.556Z,7.20
2019-03-29T00:45:37.192Z,7.10
2019-03-29T00:48:06.489Z,7.10
2019-03-29T00:50:35.820Z,7.10
2019-03-29T00:53:05.158Z,7.10
2019-03-29T00:55:34.472Z,7.10
2019-03-29T00:58:03.806Z,7.10
2019-03-29T01:00:33.715Z,7.10
2019-03-29T01:03:03.636Z,7.20
2019-03-29T01:05:33.019Z,7.20
2019-03-29T01:08:08.311Z,7.20
2019-03-29T01:10:33.462Z,7.20
2019-03-29T01:13:02.788Z,7.20
2019-03-29T01:15:32.094Z,7.20
2019-03-29T01:18:01.409Z,7.20
2019-03-29T01:20:30.714Z,7.10
2019-03-29T01:23:00.103Z,7.10
2019-03-29T01:25:29.416Z,7.20
2019-03-29T01:27:58.720Z,7.30
2019-03-29T01:30:28.028Z,7.40
2019-03-29T01:32:57.351Z,7.50
2019-03-29T01:35:26.671Z,7.50
2019-03-29T01:37:56.012Z,7.50
2019-03-29T01:40:25.326Z,7.60
2019-03-29T01:42:54.644Z,7.50
2019-03-29T01:45:23.963Z,7.50
2019-03-29T01:47:53.281Z,7.40
2019-03-29T01:50:22.652Z,7.40
2019-03-29T01:52:52.041Z,7.40
2019-03-29T01:55:21.341Z,7.30
2019-03-29T01:57:50.648Z,7.20
2019-03-29T02:00:25.580Z,7.10
2019-03-29T02:02:54.890Z,7.20
2019-03-29T02:05:24.256Z,7.10
2019-03-29T02:07:53.565Z,7.10
2019-03-29T02:10:23.222Z,7.10
2019-03-29T02:12:52.549Z,7.10
2019-03-29T02:15:21.942Z,7.00
2019-03-29T02:17:51.242Z,7.00
2019-03-29T02:20:20.559Z,7.00
2019-03-29T02:22:49.933Z,7.00
2019-03-29T02:25:19.249Z,7.10
2019-03-29T02:27:48.558Z,7.00
2019-03-29T02:30:19.084Z,7.00
2019-03-29T02:32:48.394Z,6.90
2019-03-29T02:35:17.721Z,6.80
2019-03-29T02:37:47.181Z,6.80
2019-03-29T02:40:16.507Z,6.70
2019-03-29T02:42:45.797Z,6.70
2019-03-29T02:45:15.289Z,6.70
2019-03-29T02:47:44.583Z,6.70
2019-03-29T02:50:14.153Z,6.60
2019-03-29T02:52:43.441Z,6.60
2019-03-29T02:55:12.821Z,6.60
2019-03-29T02:57:42.191Z,6.60
2019-03-29T03:00:12.859Z,6.50
2019-03-29T03:02:42.166Z,6.50
2019-03-29T03:05:11.606Z,6.40
2019-03-29T03:07:41.981Z,6.30
2019-03-29T03:10:13.029Z,6.20
2019-03-29T03:12:42.408Z,6.10
2019-03-29T03:15:11.994Z,6.00
2019-03-29T03:17:41.294Z,6.00
2019-03-29T03:20:15.026Z,5.90
2019-03-29T03:22:44.149Z,5.80
2019-03-29T03:25:13.712Z,5.80
2019-03-29T03:27:43.276Z,5.80
2019-03-29T03:30:31.995Z,5.70
2019-03-29T03:33:01.441Z,5.70
2019-03-29T03:35:30.879Z,5.70
2019-03-29T03:38:00.263Z,5.70
2019-03-29T03:40:29.666Z,5.60
2019-03-29T03:42:59.166Z,5.60
2019-03-29T03:45:28.581Z,5.50
2019-03-29T03:47:57.896Z,5.50
2019-03-29T03:50:36.094Z,5.40
2019-03-29T03:53:05.417Z,5.50
2019-03-29T03:55:37.657Z,5.60
2019-03-29T03:58:07.614Z,5.60
2019-03-29T04:00:51.655Z,5.60
2019-03-29T04:03:21.309Z,5.80
2019-03-29T04:05:50.747Z,5.90
2019-03-29T04:08:20.132Z,5.90
2019-03-29T04:10:49.670Z,5.90
2019-03-29T04:13:19.066Z,5.80
2019-03-29T04:15:48.454Z,5.80
2019-03-29T04:18:18.760Z,5.70
2019-03-29T04:20:48.140Z,5.70
2019-03-29T04:23:17.540Z,5.70
2019-03-29T04:25:47.071Z,5.70
2019-03-29T04:28:17.413Z,5.70
2019-03-29T04:30:46.747Z,5.70
2019-03-29T04:33:16.103Z,5.80
2019-03-29T04:35:45.426Z,5.80
2019-03-29T04:38:15.876Z,5.80
2019-03-29T04:40:45.188Z,5.80
2019-03-29T04:43:14.514Z,5.80
2019-03-29T04:45:43.931Z,5.80
2019-03-29T04:48:13.253Z,5.80
2019-03-29T04:50:42.557Z,5.90
2019-03-29T04:53:11.971Z,5.80
2019-03-29T04:55:41.335Z,5.70
2019-03-29T04:58:10.648Z,5.70
2019-03-29T05:00:40.134Z,5.60
2019-03-29T05:03:09.433Z,5.60
2019-03-29T05:05:38.763Z,5.60
2019-03-29T05:08:08.137Z,5.60
2019-03-29T05:10:37.459Z,5.60
2019-03-29T05:13:06.753Z,5.60
2019-03-29T05:15:36.072Z,5.60
2019-03-29T05:18:05.397Z,5.60
2019-03-29T05:20:34.720Z,5.60
2019-03-29T05:23:05.005Z,5.60
2019-03-29T05:25:34.502Z,5.60
2019-03-29T05:28:04.140Z,5.60
2019-03-29T05:30:33.484Z,5.50
2019-03-29T05:33:02.813Z,5.50
2019-03-29T05:35:32.112Z,5.60
2019-03-29T05:38:01.446Z,5.60
2019-03-29T05:40:35.106Z,5.60
2019-03-29T05:43:02.362Z,5.60
2019-03-29T05:45:31.677Z,5.70
2019-03-29T05:48:00.999Z,5.70
2019-03-29T05:50:30.301Z,5.70
2019-03-29T05:52:59.622Z,5.80
2019-03-29T05:55:32.896Z,5.80
2019-03-29T05:57:59.965Z,5.80
2019-03-29T06:00:29.277Z,5.90
2019-03-29T06:02:58.643Z,6.00
2019-03-29T06:05:27.955Z,6.10
2019-03-29T06:07:57.267Z,6.10
2019-03-29T06:10:26.579Z,6.10
2019-03-29T06:12:56.073Z,6.20
2019-03-29T06:15:25.388Z,6.30
2019-03-29T06:17:54.709Z,6.60
2019-03-29T06:20:24.013Z,6.90
2019-03-29T06:22:53.333Z,7.00
2019-03-29T06:25:22.665Z,7.10
2019-03-29T06:27:52.052Z,7.20
2019-03-29T06:30:30.933Z,7.30
2019-03-29T06:33:00.395Z,7.50
2019-03-29T06:35:32.783Z,7.60
2019-03-29T06:38:03.824Z,7.60
2019-03-29T06:40:33.226Z,7.70
2019-03-29T06:43:02.541Z,7.80
2019-03-29T06:45:31.876Z,8.00
2019-03-29T06:48:01.194Z,8.10
2019-03-29T06:50:30.530Z,8.20
2019-03-29T06:52:59.819Z,8.30
2019-03-29T06:55:29.172Z,8.40
2019-03-29T06:57:58.481Z,8.50
2019-03-29T07:00:27.882Z,8.60
2019-03-29T07:02:57.181Z,8.70
2019-03-29T07:05:26.520Z,8.90
2019-03-29T07:07:55.822Z,8.90
2019-03-29T07:10:25.137Z,8.90
2019-03-29T07:12:56.409Z,9.00
2019-03-29T07:15:25.556Z,9.10
2019-03-29T07:17:54.886Z,9.20
2019-03-29T07:20:24.283Z,9.40
2019-03-29T07:22:53.587Z,9.50
2019-03-29T07:25:22.991Z,9.50
2019-03-29T07:27:52.610Z,9.60
2019-03-29T07:30:22.238Z,9.80
2019-03-29T07:32:51.533Z,9.80
2019-03-29T07:35:20.865Z,9.90
2019-03-29T07:37:51.349Z,10.00
2019-03-29T07:40:20.729Z,10.00
2019-03-29T07:42:50.068Z,10.00
2019-03-29T07:45:19.559Z,10.10
2019-03-29T07:47:48.879Z,10.20
2019-03-29T07:50:19.248Z,10.30
2019-03-29T07:52:49.681Z,10.40
2019-03-29T07:55:19.040Z,10.50
2019-03-29T07:57:49.454Z,10.60
2019-03-29T08:00:20.468Z,10.60
2019-03-29T08:02:49.882Z,10.70
2019-03-29T08:05:19.201Z,10.80
2019-03-29T08:07:48.537Z,10.90
2019-03-29T08:10:24.894Z,11.00
2019-03-29T08:12:49.680Z,11.10
2019-03-29T08:15:19.153Z,11.20
2019-03-29T08:17:49.848Z,11.30
2019-03-29T08:20:39.369Z,11.40
2019-03-29T08:22:50.190Z,11.50
2019-03-29T08:25:19.501Z,11.70
2019-03-29T08:27:48.838Z,11.80
2019-03-29T08:30:18.152Z,11.90
2019-03-29T08:32:47.474Z,12.10
2019-03-29T08:35:16.783Z,12.10
2019-03-29T08:37:46.109Z,12.20
2019-03-29T08:40:15.564Z,12.30
2019-03-29T08:42:45.076Z,12.30
2019-03-29T08:45:14.720Z,12.40
2019-03-29T08:47:44.080Z,12.50
2019-03-29T08:50:13.588Z,12.60
2019-03-29T08:52:43.003Z,12.70
2019-03-29T08:55:17.149Z,12.90
2019-03-29T08:57:44.577Z,13.10
2019-03-29T09:00:16.114Z,13.10
2019-03-29T09:02:45.704Z,13.20
2019-03-29T09:05:15.081Z,13.30
2019-03-29T09:07:45.407Z,13.50
2019-03-29T09:10:22.849Z,13.60
2019-03-29T09:12:53.162Z,13.60
2019-03-29T09:15:22.628Z,13.80
2019-03-29T09:17:53.210Z,13.80
2019-03-29T09:20:22.676Z,13.80
2019-03-29T09:22:52.015Z,13.90
2019-03-29T09:25:22.306Z,14.00
2019-03-29T09:27:51.681Z,14.00
2019-03-29T09:30:21.170Z,14.10
2019-03-29T09:32:51.502Z,14.10
2019-03-29T09:35:21.298Z,14.20
2019-03-29T09:37:50.597Z,14.50
2019-03-29T09:40:20.175Z,14.90
2019-03-29T09:42:55.794Z,15.70
2019-03-29T09:45:20.638Z,16.20
2019-03-29T09:47:49.961Z,16.80
2019-03-29T09:50:22.756Z,17.10
2019-03-29T09:52:51.502Z,17.50
2019-03-29T09:55:21.093Z,17.80
2019-03-29T09:57:50.406Z,18.10
2019-03-29T10:00:23.350Z,18.20
2019-03-29T10:02:51.207Z,18.30
2019-03-29T10:05:20.704Z,18.50
2019-03-29T10:07:50.104Z,18.60
2019-03-29T10:10:19.496Z,18.60
2019-03-29T10:12:48.884Z,18.70
2019-03-29T10:15:18.229Z,19.20
2019-03-29T10:17:47.566Z,19.70
2019-03-29T10:20:16.989Z,19.60
2019-03-29T10:22:46.377Z,19.40
2019-03-29T10:25:19.519Z,19.30
2019-03-29T10:27:46.809Z,19.50
2019-03-29T10:30:36.083Z,20.00
2019-03-29T10:33:05.554Z,19.90
2019-03-29T10:35:50.208Z,20.10
2019-03-29T10:38:06.889Z,20.20
2019-03-29T10:40:36.261Z,20.30
2019-03-29T10:43:05.652Z,20.50
2019-03-29T10:45:39.902Z,20.60
2019-03-29T10:48:06.056Z,20.70
2019-03-29T10:50:35.370Z,20.90
2019-03-29T10:53:04.696Z,21.60
2019-03-29T10:55:34.008Z,22.00
2019-03-29T10:58:03.590Z,22.10
2019-03-29T11:00:37.607Z,22.00
2019-03-29T11:03:07.474Z,21.20
2019-03-29T11:05:36.905Z,21.30
2019-03-29T11:08:06.360Z,22.20
2019-03-29T11:10:40.486Z,22.50
2019-03-29T11:13:14.107Z,23.00
2019-03-29T11:15:41.149Z,23.10
2019-03-29T11:18:10.552Z,23.40
2019-03-29T11:20:39.926Z,24.00
2019-03-29T11:23:09.253Z,24.10
2019-03-29T11:25:38.629Z,23.80
2019-03-29T11:28:08.115Z,24.00
2019-03-29T11:30:42.367Z,24.20
2019-03-29T11:33:08.651Z,23.50
2019-03-29T11:35:37.953Z,23.20
2019-03-29T11:38:07.294Z,23.70
2019-03-29T11:40:36.592Z,23.70
2019-03-29T11:43:06.007Z,24.10
2019-03-29T11:45:35.287Z,24.10
2019-03-29T11:48:08.953Z,24.30
2019-03-29T11:50:36.324Z,24.10
2019-03-29T11:53:05.801Z,25.00
2019-03-29T11:55:35.234Z,25.80
2019-03-29T11:58:04.961Z,25.30
2019-03-29T12:00:35.998Z,25.20
2019-03-29T12:03:08.814Z,25.30
2019-03-29T12:05:38.170Z,25.80
2019-03-29T12:08:08.007Z,26.50
2019-03-29T12:10:37.383Z,26.80
2019-03-29T12:13:08.130Z,26.80
2019-03-29T12:15:38.206Z,26.20
2019-03-29T12:18:08.584Z,26.10
2019-03-29T12:20:38.217Z,25.90
2019-03-29T12:23:07.695Z,25.90
2019-03-29T12:25:37.124Z,25.30
2019-03-29T12:28:06.865Z,25.20
2019-03-29T12:30:36.445Z,25.30
2019-03-29T12:33:05.741Z,26.00
2019-03-29T12:35:35.162Z,26.50
2019-03-29T12:38:04.529Z,27.20
2019-03-29T12:40:33.872Z,27.10
2019-03-29T12:43:03.183Z,26.80
2019-03-29T12:45:32.519Z,26.30
2019-03-29T12:48:01.834Z,26.90
2019-03-29T12:50:31.162Z,26.70
2019-03-29T12:53:00.486Z,26.60
2019-03-29T12:55:29.802Z,26.80
2019-03-29T12:57:59.105Z,27.10
2019-03-29T13:00:28.445Z,26.80
2019-03-29T13:02:57.753Z,27.40
2019-03-29T13:05:27.072Z,27.10
2019-03-29T13:07:56.445Z,27.40
2019-03-29T13:10:25.858Z,27.60
2019-03-29T13:12:56.311Z,27.50
2019-03-29T13:15:25.677Z,27.20
2019-03-29T13:17:54.982Z,26.80
2019-03-29T13:20:24.310Z,26.50
2019-03-29T13:22:53.745Z,27.00
2019-03-29T13:25:23.140Z,27.20
2019-03-29T13:27:56.201Z,27.70
2019-03-29T13:30:23.540Z,28.10
2019-03-29T13:32:52.858Z,28.20
2019-03-29T13:35:22.171Z,27.90
2019-03-29T13:37:51.495Z,27.70
2019-03-29T13:40:21.280Z,27.50
2019-03-29T13:42:50.973Z,27.80
2019-03-29T13:45:20.363Z,27.70
2019-03-29T13:47:49.693Z,27.40
2019-03-29T13:50:19.081Z,27.60
2019-03-29T13:52:48.394Z,28.20
2019-03-29T13:55:17.700Z,28.20
2019-03-29T13:57:47.042Z,27.60
2019-03-29T14:00:16.663Z,27.30
2019-03-29T14:02:45.997Z,27.20
2019-03-29T14:05:15.385Z,27.90
2019-03-29T14:07:44.753Z,27.90
2019-03-29T14:10:14.420Z,27.80
2019-03-29T14:12:43.716Z,27.70
2019-03-29T14:15:13.848Z,27.40
2019-03-29T14:17:43.262Z,27.40
2019-03-29T14:20:12.897Z,27.10
2019-03-29T14:22:42.278Z,27.10
2019-03-29T14:25:11.821Z,27.30
2019-03-29T14:27:41.147Z,27.20
2019-03-29T14:30:10.876Z,27.30
2019-03-29T14:32:41.184Z,27.60
2019-03-29T14:35:10.915Z,27.40
2019-03-29T14:37:40.225Z,27.10
2019-03-29T14:40:09.876Z,27.30
2019-03-29T14:42:39.214Z,27.00
2019-03-29T14:45:10.769Z,27.00
2019-03-29T14:47:43.553Z,27.10
2019-03-29T14:50:11.506Z,27.20
2019-03-29T14:52:40.838Z,27.70
2019-03-29T14:55:10.420Z,27.60
2019-03-29T14:57:39.754Z,27.20
2019-03-29T15:00:12.039Z,26.90
2019-03-29T15:02:41.529Z,27.10
2019-03-29T15:05:10.901Z,26.80
2019-03-29T15:07:41.937Z,26.70
2019-03-29T15:10:24.504Z,26.90
2019-03-29T15:12:55.926Z,26.80
2019-03-29T15:15:25.520Z,26.70
2019-03-29T15:17:55.989Z,26.70
2019-03-29T15:20:25.300Z,27.30
2019-03-29T15:22:54.695Z,27.60
2019-03-29T15:25:24.014Z,27.40
2019-03-29T15:27:53.320Z,26.70
2019-03-29T15:30:22.679Z,26.60
2019-03-29T15:32:52.092Z,26.50
2019-03-29T15:35:21.424Z,26.40
2019-03-29T15:37:50.736Z,26.60
2019-03-29T15:40:20.084Z,26.20
2019-03-29T15:42:49.390Z,25.90
2019-03-29T15:45:20.571Z,25.80
2019-03-29T15:47:49.773Z,25.70
2019-03-29T15:50:19.153Z,25.50
2019-03-29T15:52:48.472Z,24.80
2019-03-29T15:55:17.790Z,24.50
2019-03-29T15:57:47.155Z,24.40
2019-03-29T16:00:16.848Z,24.30
2019-03-29T16:02:46.259Z,24.20
2019-03-29T16:05:15.554Z,24.00
2019-03-29T16:07:44.902Z,23.80
2019-03-29T16:10:14.271Z,23.90
2019-03-29T16:12:43.639Z,23.70
2019-03-29T16:15:13.088Z,23.20
2019-03-29T16:17:42.439Z,23.10
2019-03-29T16:20:11.977Z,22.50
2019-03-29T16:22:41.298Z,21.90
2019-03-29T16:25:10.974Z,21.10
2019-03-29T16:27:40.361Z,20.50
2019-03-29T16:30:10.237Z,20.00
2019-03-29T16:32:39.649Z,19.70
2019-03-29T16:35:10.206Z,19.30
2019-03-29T16:37:39.537Z,19.00
2019-03-29T16:40:09.189Z,18.80
2019-03-29T16:42:38.490Z,18.60
2019-03-29T16:45:28.904Z,18.30
2019-03-29T16:47:58.245Z,18.20
2019-03-29T16:50:27.621Z,18.00
2019-03-29T16:52:57.033Z,17.80
2019-03-29T16:55:26.375Z,17.70
2019-03-29T16:57:55.706Z,17.60
2019-03-29T17:00:25.094Z,17.50
2019-03-29T17:02:54.422Z,17.40
2019-03-29T17:05:23.724Z,17.30
2019-03-29T17:07:53.118Z,17.10
2019-03-29T17:10:22.495Z,17.00
2019-03-29T17:12:52.362Z,17.00
2019-03-29T17:15:21.902Z,17.00
2019-03-29T17:17:51.231Z,17.00
2019-03-29T17:20:20.565Z,17.20
2019-03-29T17:22:49.949Z,17.40
2019-03-29T17:25:19.263Z,17.70
2019-03-29T17:27:51.921Z,17.80
2019-03-29T17:30:28.544Z,17.80
2019-03-29T17:32:57.845Z,17.70
2019-03-29T17:35:27.221Z,17.50
2019-03-29T17:37:56.529Z,17.20
2019-03-29T17:40:25.903Z,17.00
2019-03-29T17:42:55.274Z,16.60
2019-03-29T17:45:24.628Z,16.40
2019-03-29T17:47:54.001Z,16.10
2019-03-29T17:50:25.282Z,15.90
2019-03-29T17:52:54.549Z,15.60
2019-03-29T17:55:23.884Z,15.40
2019-03-29T17:57:53.214Z,15.20
2019-03-29T18:00:24.590Z,15.10
2019-03-29T18:02:53.903Z,14.80
2019-03-29T18:05:23.231Z,14.60
2019-03-29T18:07:52.574Z,14.40
2019-03-29T18:10:21.892Z,14.10
2019-03-29T18:12:51.301Z,13.90
2019-03-29T18:15:20.920Z,13.80
2019-03-29T18:17:50.402Z,13.60
2019-03-29T18:20:19.862Z,13.50
2019-03-29T18:22:49.246Z,13.50
2019-03-29T18:25:18.608Z,13.30
2019-03-29T18:27:47.993Z,13.20
2019-03-29T18:30:20.397Z,13.00
2019-03-29T18:32:49.823Z,12.80
2019-03-29T18:35:19.226Z,12.70
2019-03-29T18:37:48.766Z,12.60
2019-03-29T18:40:28.152Z,12.40
2019-03-29T18:42:57.465Z,12.40
2019-03-29T18:45:26.925Z,12.30
2019-03-29T18:47:56.261Z,12.20
2019-03-29T18:50:25.629Z,12.10
2019-03-29T18:52:54.987Z,12.00
2019-03-29T18:55:25.498Z,11.90
2019-03-29T18:57:55.001Z,11.90
2019-03-29T19:00:32.606Z,11.70
2019-03-29T19:03:02.493Z,11.60
2019-03-29T19:05:32.440Z,11.60
2019-03-29T19:08:03.096Z,11.50
2019-03-29T19:10:32.539Z,11.40
2019-03-29T19:13:01.903Z,11.30
2019-03-29T19:15:31.261Z,11.20
2019-03-29T19:18:02.611Z,11.10
2019-03-29T19:20:32.023Z,11.10
2019-03-29T19:23:01.366Z,11.00
2019-03-29T19:25:30.768Z,10.90
2019-03-29T19:28:00.243Z,10.90
2019-03-29T19:30:29.565Z,10.80
2019-03-29T19:32:58.939Z,10.70
2019-03-29T19:35:28.433Z,10.60
2019-03-29T19:37:57.777Z,10.50
2019-03-29T19:40:27.080Z,10.50
2019-03-29T19:42:56.514Z,10.40
2019-03-29T19:45:26.034Z,10.30
2019-03-29T19:47:55.525Z,10.20
2019-03-29T19:50:24.999Z,10.10
2019-03-29T19:52:54.437Z,10.00
2019-03-29T19:55:23.951Z,9.90
2019-03-29T19:57:53.369Z,9.80
2019-03-29T20:00:40.523Z,9.70
2019-03-29T20:03:10.060Z,9.50
2019-03-29T20:05:39.591Z,9.40
2019-03-29T20:08:09.063Z,9.40
2019-03-29T20:10:38.455Z,9.30
2019-03-29T20:13:07.993Z,9.30
2019-03-29T20:15:37.434Z,9.20
2019-03-29T20:18:06.810Z,9.10
2019-03-29T20:20:36.213Z,9.00
2019-03-29T20:23:05.618Z,9.00
2019-03-29T20:25:35.038Z,8.90
2019-03-29T20:28:04.682Z,8.90
2019-03-29T20:30:34.155Z,8.90
2019-03-29T20:33:03.939Z,8.80
2019-03-29T20:35:33.413Z,8.80
2019-03-29T20:38:02.717Z,8.70
2019-03-29T20:40:33.279Z,8.60
2019-03-29T20:43:02.644Z,8.60
2019-03-29T20:45:31.967Z,8.60
2019-03-29T20:48:01.379Z,8.50
2019-03-29T20:50:30.718Z,8.60
2019-03-29T20:53:00.077Z,8.60
2019-03-29T20:55:29.376Z,8.50
2019-03-29T20:57:58.732Z,8.50
2019-03-29T21:00:28.119Z,8.40
2019-03-29T21:02:57.546Z,8.40
2019-03-29T21:05:26.837Z,8.40
2019-03-29T21:07:56.260Z,8.40
2019-03-29T21:10:25.675Z,8.30
2019-03-29T21:12:55.175Z,8.30
2019-03-29T21:15:24.529Z,8.30
2019-03-29T21:17:57.073Z,8.20
2019-03-29T21:20:24.976Z,8.10
2019-03-29T21:22:54.298Z,8.10
2019-03-29T21:25:23.606Z,8.00
2019-03-29T21:27:52.959Z,8.10
2019-03-29T21:30:22.616Z,8.10
2019-03-29T21:32:51.973Z,8.20
2019-03-29T21:35:21.344Z,8.30
2019-03-29T21:37:51.810Z,8.30
2019-03-29T21:40:21.143Z,8.30
2019-03-29T21:42:50.538Z,8.30
2019-03-29T21:45:28.726Z,8.20
2019-03-29T21:48:01.913Z,8.10
2019-03-29T21:50:22.251Z,8.10
2019-03-29T21:52:51.547Z,8.00
2019-03-29T21:55:20.883Z,7.90
2019-03-29T21:57:50.222Z,7.80
2019-03-29T22:00:20.918Z,7.70
2019-03-29T22:02:50.394Z,7.60
2019-03-29T22:05:20.784Z,7.70
2019-03-29T22:07:50.089Z,7.70
2019-03-29T22:10:19.437Z,7.60
2019-03-29T22:12:48.757Z,7.70
2019-03-29T22:15:18.209Z,7.70
2019-03-29T22:17:47.510Z,7.70
2019-03-29T22:20:16.916Z,7.60
2019-03-29T22:22:47.156Z,7.70
2019-03-29T22:25:16.630Z,7.70
2019-03-29T22:27:45.947Z,7.70
2019-03-29T22:30:18.607Z,7.70
2019-03-29T22:32:47.994Z,7.70
2019-03-29T22:35:17.321Z,7.70
2019-03-29T22:37:46.699Z,7.70
2019-03-29T22:40:16.075Z,7.70
2019-03-29T22:42:45.393Z,7.60
2019-03-29T22:45:14.993Z,7.60
2019-03-29T22:47:44.329Z,7.60
2019-03-29T22:50:13.912Z,7.50
2019-03-29T22:52:43.223Z,7.50
2019-03-29T22:55:12.614Z,7.50
2019-03-29T22:57:41.934Z,7.40
2019-03-29T23:00:14.390Z,7.40
2019-03-29T23:02:45.482Z,7.30
2019-03-29T23:05:14.781Z,7.30
2019-03-29T23:07:44.124Z,7.30
2019-03-29T23:10:14.389Z,7.30
2019-03-29T23:12:43.811Z,7.30
2019-03-29T23:15:13.540Z,7.20
2019-03-29T23:17:42.923Z,7.10
2019-03-29T23:20:12.457Z,7.00
2019-03-29T23:22:41.927Z,7.00
2019-03-29T23:25:11.323Z,7.00
2019-03-29T23:27:40.646Z,7.00
2019-03-29T23:30:11.885Z,6.90
2019-03-29T23:32:41.841Z,6.90
2019-03-29T23:35:11.210Z,7.00
2019-03-29T23:37:40.775Z,7.10
2019-03-29T23:40:10.472Z,7.10
2019-03-29T23:42:41.267Z,7.10
2019-03-29T23:45:10.868Z,7.10
2019-03-29T23:47:40.279Z,7.10
2019-03-29T23:50:09.883Z,7.10
2019-03-29T23:52:39.277Z,7.10
2019-03-29T23:55:08.913Z,7.00
2019-03-29T23:57:38.228Z,7.00
